createdAt,value
2023-10-22T00:01:26.376Z,0.70
2023-10-22T00:03:54.284Z,0.47
2023-10-22T00:06:23.624Z,0.70
2023-10-22T00:08:51.450Z,0.90
2023-10-22T00:11:19.210Z,0.88
2023-10-22T00:13:46.975Z,0.82
2023-10-22T00:16:14.809Z,0.90
2023-10-22T00:18:42.618Z,0.80
2023-10-22T00:21:10.468Z,0.73
2023-10-22T00:23:39.631Z,0.50
2023-10-22T00:26:07.861Z,0.80
2023-10-22T00:28:35.759Z,1.45
2023-10-22T00:31:03.526Z,1.00
2023-10-22T00:33:31.468Z,0.70
2023-10-22T00:36:00.465Z,0.70
2023-10-22T00:38:28.407Z,1.13
2023-10-22T00:40:57.525Z,1.05
2023-10-22T00:43:25.288Z,0.70
2023-10-22T00:45:55.093Z,1.60
2023-10-22T00:48:23.885Z,0.90
2023-10-22T00:50:51.919Z,0.73
2023-10-22T00:53:20.068Z,0.88
2023-10-22T00:55:49.458Z,0.85
2023-10-22T00:58:22.262Z,0.80
2023-10-22T01:00:50.147Z,0.95
2023-10-22T01:03:20.205Z,0.80
2023-10-22T01:05:48.187Z,1.42
2023-10-22T01:08:16.053Z,0.82
2023-10-22T01:10:43.820Z,0.80
2023-10-22T01:13:11.682Z,1.20
2023-10-22T01:15:40.844Z,0.90
2023-10-22T01:18:09.507Z,1.33
2023-10-22T01:20:37.399Z,0.90
2023-10-22T01:23:05.181Z,0.80
2023-10-22T01:25:34.269Z,0.80
2023-10-22T01:28:02.061Z,1.00
2023-10-22T01:30:30.429Z,1.25
2023-10-22T01:32:58.288Z,0.95
2023-10-22T01:35:26.112Z,0.80
2023-10-22T01:37:53.905Z,0.70
2023-10-22T01:40:21.720Z,1.05
2023-10-22T01:42:51.570Z,0.90
2023-10-22T01:45:19.620Z,0.77
2023-10-22T01:47:47.539Z,0.82
2023-10-22T01:50:15.594Z,0.80
2023-10-22T01:52:43.318Z,0.90
2023-10-22T01:55:11.100Z,0.70
2023-10-22T01:57:38.855Z,0.73
2023-10-22T02:00:11.878Z,0.60
2023-10-22T02:02:41.062Z,0.88
2023-10-22T02:05:09.544Z,0.50
2023-10-22T02:07:39.204Z,0.95
2023-10-22T02:10:09.745Z,0.90
2023-10-22T02:12:38.201Z,0.90
2023-10-22T02:15:09.209Z,0.90
2023-10-22T02:17:38.313Z,0.57
2023-10-22T02:20:10.063Z,0.90
2023-10-22T02:22:38.316Z,0.90
2023-10-22T02:25:07.828Z,0.60
2023-10-22T02:27:36.276Z,0.80
2023-10-22T02:30:04.388Z,0.90
2023-10-22T02:32:34.062Z,0.80
2023-10-22T02:35:01.817Z,0.80
2023-10-22T02:37:29.748Z,0.80
2023-10-22T02:39:57.583Z,0.80
2023-10-22T02:42:25.376Z,0.93
2023-10-22T02:44:53.152Z,0.70
2023-10-22T02:47:20.913Z,0.63
2023-10-22T02:49:50.091Z,0.77
2023-10-22T02:52:17.887Z,0.80
2023-10-22T02:54:45.646Z,0.88
2023-10-22T02:57:13.426Z,0.73
2023-10-22T02:59:41.265Z,0.75
2023-10-22T03:02:09.040Z,0.90
2023-10-22T03:04:37.134Z,0.85
2023-10-22T03:07:06.567Z,0.68
2023-10-22T03:09:34.702Z,0.90
2023-10-22T03:12:02.558Z,0.80
2023-10-22T03:14:30.368Z,0.90
2023-10-22T03:16:58.804Z,1.00
2023-10-22T03:19:26.681Z,1.02
2023-10-22T03:21:54.391Z,0.73
2023-10-22T03:24:24.128Z,1.02
2023-10-22T03:26:51.987Z,1.30
2023-10-22T03:29:19.759Z,1.42
2023-10-22T03:31:47.584Z,0.80
2023-10-22T03:34:15.354Z,1.10
2023-10-22T03:36:43.201Z,1.25
2023-10-22T03:39:11.026Z,0.98
2023-10-22T03:41:40.315Z,1.10
2023-10-22T03:44:08.105Z,1.08
2023-10-22T03:46:35.959Z,1.10
2023-10-22T03:49:03.939Z,0.98
2023-10-22T03:51:31.783Z,1.10
2023-10-22T03:54:00.672Z,1.42
2023-10-22T03:56:28.441Z,1.17
2023-10-22T03:58:57.501Z,0.98
2023-10-22T04:01:25.300Z,0.85
2023-10-22T04:03:53.176Z,1.17
2023-10-22T04:06:21.005Z,1.15
2023-10-22T04:08:48.841Z,1.52
2023-10-22T04:11:20.854Z,1.27
2023-10-22T04:13:48.794Z,1.35
2023-10-22T04:16:18.708Z,1.20
2023-10-22T04:18:46.536Z,1.70
2023-10-22T04:21:15.463Z,1.40
2023-10-22T04:23:43.703Z,1.40
2023-10-22T04:26:14.927Z,1.52
2023-10-22T04:28:43.932Z,1.30
2023-10-22T04:31:11.796Z,1.02
2023-10-22T04:33:41.753Z,1.40
2023-10-22T04:36:17.136Z,1.42
2023-10-22T04:38:45.020Z,1.88
2023-10-22T04:41:13.156Z,1.33
2023-10-22T04:43:41.073Z,1.20
2023-10-22T04:46:08.919Z,0.90
2023-10-22T04:48:37.201Z,1.38
2023-10-22T04:51:10.404Z,1.42
2023-10-22T04:53:38.482Z,1.50
2023-10-22T04:56:07.433Z,1.20
2023-10-22T04:58:36.502Z,1.30
2023-10-22T05:01:04.385Z,0.98
2023-10-22T05:03:32.337Z,1.83
2023-10-22T05:06:07.793Z,1.13
2023-10-22T05:08:39.416Z,1.13
2023-10-22T05:11:08.020Z,1.17
2023-10-22T05:13:35.825Z,1.25
2023-10-22T05:16:03.919Z,0.98
2023-10-22T05:18:31.977Z,1.20
2023-10-22T05:21:03.163Z,1.17
2023-10-22T05:23:31.228Z,0.98
2023-10-22T05:26:06.355Z,0.90
2023-10-22T05:28:34.275Z,0.90
2023-10-22T05:31:02.091Z,0.95
2023-10-22T05:33:30.044Z,1.05
2023-10-22T05:35:58.311Z,1.55
2023-10-22T05:38:26.072Z,0.98
2023-10-22T05:40:53.813Z,0.90
2023-10-22T05:43:22.988Z,1.23
2023-10-22T05:45:58.770Z,1.90
2023-10-22T05:48:26.773Z,1.45
2023-10-22T05:50:54.589Z,1.30
2023-10-22T05:53:22.430Z,0.98
2023-10-22T05:55:57.353Z,1.10
2023-10-22T05:58:26.568Z,1.00
2023-10-22T06:00:55.297Z,1.45
2023-10-22T06:03:23.410Z,1.40
2023-10-22T06:05:51.327Z,1.33
2023-10-22T06:08:19.159Z,1.15
2023-10-22T06:10:47.525Z,1.10
2023-10-22T06:13:15.473Z,0.90
2023-10-22T06:15:45.791Z,0.93
2023-10-22T06:18:14.171Z,0.80
2023-10-22T06:20:42.309Z,1.05
2023-10-22T06:23:10.384Z,1.13
2023-10-22T06:25:38.116Z,1.45
2023-10-22T06:28:06.881Z,1.40
2023-10-22T06:30:35.213Z,1.02
2023-10-22T06:33:05.248Z,0.85
2023-10-22T06:35:33.391Z,0.90
2023-10-22T06:38:01.161Z,2.03
2023-10-22T06:40:29.002Z,0.80
2023-10-22T06:42:57.191Z,1.08
2023-10-22T06:45:25.038Z,1.02
2023-10-22T06:47:52.970Z,0.93
2023-10-22T06:50:22.116Z,1.10
2023-10-22T06:52:49.838Z,1.23
2023-10-22T06:55:17.647Z,1.08
2023-10-22T06:57:47.203Z,1.13
2023-10-22T07:00:15.800Z,1.17
2023-10-22T07:02:44.960Z,0.98
2023-10-22T07:05:12.792Z,0.90
2023-10-22T07:07:44.103Z,1.30
2023-10-22T07:10:12.252Z,0.93
2023-10-22T07:12:40.128Z,1.17
2023-10-22T07:15:10.373Z,0.77
2023-10-22T07:17:38.233Z,0.95
2023-10-22T07:20:07.436Z,1.10
2023-10-22T07:22:35.216Z,1.02
2023-10-22T07:25:04.660Z,0.95
2023-10-22T07:27:32.482Z,0.77
2023-10-22T07:30:00.311Z,0.80
2023-10-22T07:32:28.171Z,1.17
2023-10-22T07:34:55.924Z,1.33
2023-10-22T07:37:24.023Z,1.08
2023-10-22T07:39:51.759Z,0.95
2023-10-22T07:42:20.945Z,1.20
2023-10-22T07:44:52.309Z,1.00
2023-10-22T07:47:20.185Z,1.20
2023-10-22T07:49:52.773Z,1.00
2023-10-22T07:52:20.670Z,1.42
2023-10-22T07:54:50.895Z,1.00
2023-10-22T07:57:20.101Z,1.63
2023-10-22T07:59:47.950Z,1.55
2023-10-22T08:02:15.714Z,1.20
2023-10-22T08:04:43.826Z,1.33
2023-10-22T08:07:11.607Z,1.55
2023-10-22T08:09:39.436Z,1.50
2023-10-22T08:12:08.766Z,1.35
2023-10-22T08:14:38.190Z,2.03
2023-10-22T08:17:06.066Z,1.55
2023-10-22T08:19:33.887Z,1.38
2023-10-22T08:22:01.909Z,0.98
2023-10-22T08:24:30.625Z,1.08
2023-10-22T08:27:01.076Z,1.15
2023-10-22T08:29:28.894Z,1.27
2023-10-22T08:31:58.096Z,1.55
2023-10-22T08:34:26.138Z,1.65
2023-10-22T08:36:53.922Z,1.35
2023-10-22T08:39:21.830Z,1.50
2023-10-22T08:42:01.308Z,1.10
2023-10-22T08:44:30.371Z,1.70
2023-10-22T08:46:59.592Z,1.05
2023-10-22T08:49:29.373Z,1.38
2023-10-22T08:51:58.160Z,0.70
2023-10-22T08:54:27.637Z,1.48
2023-10-22T08:56:55.937Z,0.90
2023-10-22T08:59:24.499Z,1.27
2023-10-22T09:01:52.921Z,1.73
2023-10-22T09:04:22.334Z,1.15
2023-10-22T09:06:54.655Z,1.10
2023-10-22T09:09:34.626Z,0.90
2023-10-22T09:12:05.081Z,1.20
2023-10-22T09:14:32.992Z,1.00
2023-10-22T09:17:15.852Z,1.25
2023-10-22T09:19:48.269Z,1.08
2023-10-22T09:22:23.740Z,1.20
2023-10-22T09:24:54.125Z,1.10
2023-10-22T09:27:26.213Z,1.60
2023-10-22T09:29:54.759Z,1.27
2023-10-22T09:32:23.068Z,1.20
2023-10-22T09:34:52.299Z,1.02
2023-10-22T09:37:20.122Z,1.00
2023-10-22T09:39:47.980Z,1.10
2023-10-22T09:42:18.156Z,1.35
2023-10-22T09:44:46.788Z,1.20
2023-10-22T09:47:22.422Z,1.52
2023-10-22T09:49:54.142Z,1.60
2023-10-22T09:52:24.430Z,1.23
2023-10-22T09:54:55.921Z,1.00
2023-10-22T09:57:29.817Z,1.42
2023-10-22T09:59:59.826Z,0.93
2023-10-22T10:02:28.574Z,1.20
2023-10-22T10:04:59.754Z,1.00
2023-10-22T10:07:28.065Z,1.30
2023-10-22T10:09:57.011Z,0.90
2023-10-22T10:12:28.997Z,1.13
2023-10-22T10:14:57.020Z,1.52
2023-10-22T10:17:24.893Z,1.08
2023-10-22T10:19:52.816Z,1.10
2023-10-22T10:22:40.375Z,1.45
2023-10-22T10:25:30.826Z,0.85
2023-10-22T10:28:03.307Z,1.27
2023-10-22T10:30:31.591Z,1.65
2023-10-22T10:33:14.283Z,1.30
2023-10-22T10:35:47.934Z,1.50
2023-10-22T10:38:29.455Z,1.20
2023-10-22T10:40:58.029Z,1.02
2023-10-22T10:44:03.741Z,1.17
2023-10-22T10:46:32.776Z,1.25
2023-10-22T10:49:00.743Z,1.08
2023-10-22T10:51:29.470Z,1.10
2023-10-22T10:54:22.711Z,1.20
2023-10-22T10:56:56.242Z,1.58
2023-10-22T10:59:35.610Z,1.20
2023-10-22T11:02:09.027Z,1.73
2023-10-22T11:04:38.819Z,1.58
2023-10-22T11:07:18.776Z,2.03
2023-10-22T11:09:55.969Z,1.30
2023-10-22T11:12:25.987Z,1.60
2023-10-22T11:14:58.057Z,1.20
2023-10-22T11:17:26.640Z,1.83
2023-10-22T11:19:54.770Z,1.30
2023-10-22T11:22:22.661Z,1.30
2023-10-22T11:24:52.286Z,1.25
2023-10-22T11:27:22.100Z,1.15
2023-10-22T11:29:51.136Z,1.83
2023-10-22T11:32:20.011Z,1.25
2023-10-22T11:34:52.549Z,1.90
2023-10-22T11:37:21.820Z,1.83
2023-10-22T11:39:50.111Z,1.50
2023-10-22T11:42:18.001Z,1.70
2023-10-22T11:44:47.779Z,1.90
2023-10-22T11:47:26.998Z,1.85
2023-10-22T11:49:55.658Z,1.70
2023-10-22T11:52:39.814Z,1.85
2023-10-22T11:55:15.104Z,1.75
2023-10-22T11:57:46.660Z,2.05
2023-10-22T12:00:16.818Z,2.15
2023-10-22T12:02:44.917Z,1.70
2023-10-22T12:05:13.648Z,1.77
2023-10-22T12:07:41.606Z,1.92
2023-10-22T12:10:11.469Z,1.92
2023-10-22T12:12:39.518Z,1.95
2023-10-22T12:15:09.233Z,1.80
2023-10-22T12:17:38.474Z,1.77
2023-10-22T12:20:07.465Z,2.20
2023-10-22T12:22:35.294Z,1.88
2023-10-22T12:25:05.193Z,1.70
2023-10-22T12:27:33.273Z,2.58
2023-10-22T12:30:01.178Z,2.63
2023-10-22T12:32:29.108Z,1.85
2023-10-22T12:34:58.519Z,1.90
2023-10-22T12:37:26.314Z,1.60
2023-10-22T12:39:54.596Z,1.67
2023-10-22T12:42:22.404Z,2.00
2023-10-22T12:44:50.452Z,2.42
2023-10-22T12:47:18.888Z,1.60
2023-10-22T12:49:46.997Z,2.17
2023-10-22T12:52:16.304Z,2.40
2023-10-22T12:54:46.164Z,1.75
2023-10-22T12:57:14.194Z,2.40
2023-10-22T12:59:42.024Z,2.53
2023-10-22T13:02:11.236Z,1.92
2023-10-22T13:04:39.504Z,1.77
2023-10-22T13:07:08.106Z,2.00
2023-10-22T13:09:37.323Z,1.75
2023-10-22T13:12:05.663Z,1.70
2023-10-22T13:14:33.515Z,2.20
2023-10-22T13:17:01.671Z,1.92
2023-10-22T13:19:29.536Z,1.77
2023-10-22T13:21:57.360Z,1.40
2023-10-22T13:24:25.347Z,1.60
2023-10-22T13:26:55.063Z,1.50
2023-10-22T13:29:22.889Z,1.80
2023-10-22T13:31:51.498Z,1.58
2023-10-22T13:34:19.264Z,1.50
2023-10-22T13:36:47.412Z,1.60
2023-10-22T13:39:15.278Z,1.55
2023-10-22T13:41:43.893Z,1.23
2023-10-22T13:44:13.164Z,1.88
2023-10-22T13:46:40.964Z,1.75
2023-10-22T13:49:08.776Z,2.00
2023-10-22T13:51:36.574Z,1.75
2023-10-22T13:54:04.842Z,1.63
2023-10-22T13:56:32.611Z,1.50
2023-10-22T13:59:01.491Z,1.52
2023-10-22T14:01:30.737Z,1.67
2023-10-22T14:03:58.718Z,1.35
2023-10-22T14:06:26.651Z,1.15
2023-10-22T14:08:54.536Z,1.35
2023-10-22T14:11:23.122Z,1.33
2023-10-22T14:13:52.230Z,1.58
2023-10-22T14:16:21.612Z,1.35
2023-10-22T14:18:50.962Z,1.23
2023-10-22T14:21:21.581Z,1.52
2023-10-22T14:23:49.452Z,1.38
2023-10-22T14:26:17.230Z,2.17
2023-10-22T14:28:45.049Z,1.60
2023-10-22T14:31:12.843Z,1.50
2023-10-22T14:33:41.932Z,1.33
2023-10-22T14:36:13.452Z,1.60
2023-10-22T14:38:41.307Z,1.65
2023-10-22T14:41:09.131Z,1.50
2023-10-22T14:43:36.984Z,1.58
2023-10-22T14:46:05.375Z,1.33
2023-10-22T14:48:33.638Z,1.10
2023-10-22T14:51:02.778Z,1.75
2023-10-22T14:53:32.840Z,1.42
2023-10-22T14:56:01.899Z,1.75
2023-10-22T14:58:30.550Z,1.60
2023-10-22T15:01:03.069Z,1.40
2023-10-22T15:03:31.292Z,1.38
2023-10-22T15:05:59.534Z,1.38
2023-10-22T15:08:27.565Z,1.15
2023-10-22T15:10:56.772Z,1.77
2023-10-22T15:13:24.778Z,1.52
2023-10-22T15:15:52.565Z,1.50
2023-10-22T15:18:20.465Z,2.13
2023-10-22T15:20:50.620Z,1.60
2023-10-22T15:23:19.142Z,1.48
2023-10-22T15:25:48.172Z,1.58
2023-10-22T15:28:18.275Z,1.92
2023-10-22T15:30:47.223Z,1.70
2023-10-22T15:33:15.784Z,1.90
2023-10-22T15:35:43.669Z,1.38
2023-10-22T15:38:14.329Z,1.60
2023-10-22T15:40:42.198Z,1.80
2023-10-22T15:43:12.009Z,1.63
2023-10-22T15:45:45.955Z,1.98
2023-10-22T15:48:14.522Z,1.77
2023-10-22T15:50:43.821Z,1.92
2023-10-22T15:53:12.090Z,2.10
2023-10-22T15:55:40.245Z,1.95
2023-10-22T15:58:08.000Z,2.75
2023-10-22T16:00:37.078Z,2.70
2023-10-22T16:03:06.566Z,3.05
2023-10-22T16:05:38.922Z,2.47
2023-10-22T16:08:08.017Z,2.67
2023-10-22T16:10:36.234Z,3.55
2023-10-22T16:13:04.895Z,2.30
2023-10-22T16:15:32.778Z,2.97
2023-10-22T16:18:00.692Z,2.97
2023-10-22T16:20:29.971Z,2.80
2023-10-22T16:22:58.438Z,2.55
2023-10-22T16:25:26.587Z,2.22
2023-10-22T16:27:54.340Z,2.58
2023-10-22T16:30:22.847Z,2.33
2023-10-22T16:32:53.694Z,2.40
2023-10-22T16:35:21.647Z,2.28
2023-10-22T16:37:50.783Z,2.00
2023-10-22T16:40:18.621Z,2.08
2023-10-22T16:42:47.454Z,1.70
2023-10-22T16:45:15.398Z,1.70
2023-10-22T16:47:43.229Z,1.67
2023-10-22T16:50:11.671Z,2.17
2023-10-22T16:52:39.437Z,2.13
2023-10-22T16:55:10.033Z,1.92
2023-10-22T16:57:37.860Z,2.15
2023-10-22T17:00:08.471Z,2.30
2023-10-22T17:02:36.479Z,1.70
2023-10-22T17:05:04.382Z,1.95
2023-10-22T17:07:34.641Z,1.67
2023-10-22T17:10:03.155Z,2.13
2023-10-22T17:12:31.390Z,2.30
2023-10-22T17:14:59.913Z,2.05
2023-10-22T17:17:28.147Z,1.75
2023-10-22T17:19:56.081Z,1.85
2023-10-22T17:22:23.952Z,1.60
2023-10-22T17:24:51.700Z,1.60
2023-10-22T17:27:19.532Z,1.98
2023-10-22T17:29:48.656Z,2.25
2023-10-22T17:32:16.402Z,2.00
2023-10-22T17:34:44.157Z,1.80
2023-10-22T17:37:12.560Z,2.30
2023-10-22T17:39:41.941Z,1.80
2023-10-22T17:42:11.772Z,1.92
2023-10-22T17:44:40.827Z,1.88
2023-10-22T17:47:10.077Z,1.75
2023-10-22T17:49:38.181Z,2.20
2023-10-22T17:52:06.733Z,2.15
2023-10-22T17:54:34.533Z,2.03
2023-10-22T17:57:02.709Z,1.98
2023-10-22T17:59:30.515Z,1.92
2023-10-22T18:01:58.765Z,1.70
2023-10-22T18:04:28.513Z,2.00
2023-10-22T18:06:56.734Z,1.65
2023-10-22T18:09:24.548Z,1.95
2023-10-22T18:11:52.368Z,2.08
2023-10-22T18:14:20.130Z,1.92
2023-10-22T18:16:49.824Z,2.13
2023-10-22T18:19:27.234Z,2.40
2023-10-22T18:22:05.029Z,2.00
2023-10-22T18:24:32.850Z,2.55
2023-10-22T18:27:00.626Z,1.80
2023-10-22T18:29:28.333Z,2.00
2023-10-22T18:31:57.634Z,1.90
2023-10-22T18:34:28.571Z,1.80
2023-10-22T18:36:56.419Z,2.10
2023-10-22T18:39:25.624Z,1.85
2023-10-22T18:42:07.545Z,1.60
2023-10-22T18:44:39.906Z,2.40
2023-10-22T18:47:07.876Z,2.05
2023-10-22T18:49:35.678Z,1.77
2023-10-22T18:52:05.130Z,2.60
2023-10-22T18:54:34.259Z,2.17
2023-10-22T18:57:02.020Z,2.13
2023-10-22T18:59:29.829Z,1.58
2023-10-22T19:01:57.689Z,1.90
2023-10-22T19:04:25.597Z,1.80
2023-10-22T19:06:55.880Z,1.80
2023-10-22T19:09:23.972Z,1.98
2023-10-22T19:11:53.149Z,1.80
2023-10-22T19:14:20.917Z,1.65
2023-10-22T19:16:48.719Z,1.80
2023-10-22T19:19:16.664Z,1.80
2023-10-22T19:21:44.539Z,2.40
2023-10-22T19:24:12.362Z,2.20
2023-10-22T19:26:40.151Z,1.65
2023-10-22T19:29:09.315Z,1.88
2023-10-22T19:31:39.130Z,1.90
2023-10-22T19:34:07.152Z,2.00
2023-10-22T19:36:35.227Z,1.65
2023-10-22T19:39:03.187Z,2.08
2023-10-22T19:41:31.292Z,1.30
2023-10-22T19:43:59.920Z,2.47
2023-10-22T19:46:29.185Z,2.58
2023-10-22T19:48:57.013Z,1.60
2023-10-22T19:51:24.854Z,1.40
2023-10-22T19:53:53.199Z,1.70
2023-10-22T19:56:20.933Z,1.55
2023-10-22T19:58:49.353Z,1.75
2023-10-22T20:01:19.586Z,1.70
2023-10-22T20:03:50.397Z,1.50
2023-10-22T20:06:20.688Z,1.85
2023-10-22T20:08:49.694Z,1.83
2023-10-22T20:11:17.717Z,1.70
2023-10-22T20:13:46.352Z,1.75
2023-10-22T20:16:21.878Z,2.20
2023-10-22T20:18:52.242Z,1.80
2023-10-22T20:21:21.068Z,2.40
2023-10-22T20:23:49.440Z,1.80
2023-10-22T20:26:17.242Z,1.63
2023-10-22T20:28:46.426Z,1.83
2023-10-22T20:31:15.649Z,1.65
2023-10-22T20:33:45.297Z,1.98
2023-10-22T20:36:16.997Z,1.63
2023-10-22T20:38:45.836Z,1.90
2023-10-22T20:41:14.435Z,1.60
2023-10-22T20:43:44.072Z,1.30
2023-10-22T20:46:12.093Z,1.70
2023-10-22T20:48:40.088Z,1.90
2023-10-22T20:51:10.274Z,1.90
2023-10-22T20:53:40.367Z,1.70
2023-10-22T20:56:09.708Z,1.60
2023-10-22T20:58:37.551Z,1.50
2023-10-22T21:01:16.884Z,1.98
2023-10-22T21:03:46.347Z,1.70
2023-10-22T21:06:14.877Z,1.58
2023-10-22T21:08:44.893Z,1.60
2023-10-22T21:11:13.569Z,1.77
2023-10-22T21:13:41.532Z,1.73
2023-10-22T21:16:11.920Z,1.60
2023-10-22T21:18:42.298Z,1.50
2023-10-22T21:21:10.175Z,1.60
2023-10-22T21:23:39.799Z,1.52
2023-10-22T21:26:09.522Z,1.60
2023-10-22T21:28:37.403Z,1.77
2023-10-22T21:31:06.531Z,2.50
2023-10-22T21:33:34.714Z,2.40
2023-10-22T21:36:03.879Z,1.70
2023-10-22T21:38:32.041Z,1.88
2023-10-22T21:41:00.103Z,2.50
2023-10-22T21:43:29.540Z,2.10
2023-10-22T21:46:06.781Z,2.55
2023-10-22T21:48:34.684Z,1.67
2023-10-22T21:51:02.501Z,2.10
2023-10-22T21:53:30.373Z,1.48
2023-10-22T21:55:59.585Z,1.63
2023-10-22T21:58:27.420Z,1.65
2023-10-22T22:00:57.123Z,1.83
2023-10-22T22:03:25.155Z,1.95
2023-10-22T22:05:53.063Z,2.33
2023-10-22T22:08:20.883Z,2.10
2023-10-22T22:10:48.751Z,2.00
2023-10-22T22:13:17.805Z,1.65
2023-10-22T22:15:45.755Z,1.55
2023-10-22T22:18:14.957Z,2.30
2023-10-22T22:20:42.741Z,2.15
2023-10-22T22:23:11.026Z,2.10
2023-10-22T22:25:45.090Z,2.00
2023-10-22T22:28:13.917Z,2.30
2023-10-22T22:30:41.926Z,2.15
2023-10-22T22:33:09.771Z,2.65
2023-10-22T22:35:38.903Z,2.50
2023-10-22T22:38:06.771Z,1.77
2023-10-22T22:40:34.597Z,2.00
2023-10-22T22:43:02.327Z,1.90
2023-10-22T22:45:30.179Z,3.25
2023-10-22T22:47:58.034Z,2.00
2023-10-22T22:50:26.089Z,1.83
2023-10-22T22:52:55.228Z,2.25
2023-10-22T22:55:23.056Z,1.98
2023-10-22T22:57:50.846Z,2.08
2023-10-22T23:00:19.688Z,2.03
2023-10-22T23:02:47.638Z,1.90
2023-10-22T23:05:15.496Z,2.20
2023-10-22T23:07:43.287Z,2.17
2023-10-22T23:10:12.860Z,2.05
2023-10-22T23:12:40.713Z,1.90
2023-10-22T23:15:10.336Z,2.28
2023-10-22T23:17:38.134Z,2.00
2023-10-22T23:20:06.947Z,1.80
2023-10-22T23:22:34.772Z,2.15
2023-10-22T23:25:02.532Z,1.98
2023-10-22T23:27:31.686Z,2.00
2023-10-22T23:29:59.543Z,1.90
2023-10-22T23:32:27.398Z,2.05
2023-10-22T23:34:55.160Z,2.05
2023-10-22T23:37:22.939Z,1.83
2023-10-22T23:39:52.542Z,1.65
2023-10-22T23:42:20.430Z,1.70
2023-10-22T23:44:49.587Z,1.60
2023-10-22T23:47:17.360Z,2.72
2023-10-22T23:49:45.163Z,2.25
2023-10-22T23:52:12.957Z,1.83
2023-10-22T23:54:40.962Z,1.80
2023-10-22T23:57:08.932Z,1.90
2023-10-22T23:59:36.822Z,2.00
